sensor_id;sensor_type;location;lat;lon;timestamp;P1;durP1;ratioP1;P2;durP2;ratioP2
31378;SDS011;61664;48.112;11.662;2023-12-14T00:00:54;0.20;;;0.20;;
31378;SDS011;61664;48.112;11.662;2023-12-14T00:03:21;0.20;;;0.20;;
31378;SDS011;61664;48.112;11.662;2023-12-14T00:05:48;0.28;;;0.20;;
31378;SDS011;61664;48.112;11.662;2023-12-14T00:08:15;0.10;;;0.10;;
31378;SDS011;61664;48.112;11.662;2023-12-14T00:10:42;0.43;;;0.32;;
31378;SDS011;61664;48.112;11.662;2023-12-14T00:13:09;0.10;;;0.10;;
31378;SDS011;61664;48.112;11.662;2023-12-14T00:15:36;0.20;;;0.20;;
31378;SDS011;61664;48.112;11.662;2023-12-14T00:18:03;0.15;;;0.15;;
31378;SDS011;61664;48.112;11.662;2023-12-14T00:20:33;0.20;;;0.20;;
31378;SDS011;61664;48.112;11.662;2023-12-14T00:23:00;0.20;;;0.20;;
31378;SDS011;61664;48.112;11.662;2023-12-14T00:25:27;0.20;;;0.20;;
31378;SDS011;61664;48.112;11.662;2023-12-14T00:27:54;0.20;;;0.20;;
31378;SDS011;61664;48.112;11.662;2023-12-14T00:30:20;0.63;;;0.20;;
31378;SDS011;61664;48.112;11.662;2023-12-14T00:32:47;0.20;;;0.20;;
31378;SDS011;61664;48.112;11.662;2023-12-14T00:35:15;0.10;;;0.10;;
31378;SDS011;61664;48.112;11.662;2023-12-14T00:37:42;0.20;;;0.20;;
31378;SDS011;61664;48.112;11.662;2023-12-14T00:40:09;0.10;;;0.10;;
31378;SDS011;61664;48.112;11.662;2023-12-14T00:42:36;0.10;;;0.10;;
31378;SDS011;61664;48.112;11.662;2023-12-14T00:45:03;0.10;;;0.10;;
31378;SDS011;61664;48.112;11.662;2023-12-14T00:47:31;0.10;;;0.10;;
31378;SDS011;61664;48.112;11.662;2023-12-14T00:49:58;0.10;;;0.10;;
31378;SDS011;61664;48.112;11.662;2023-12-14T00:52:25;0.85;;;0.30;;
31378;SDS011;61664;48.112;11.662;2023-12-14T00:54:51;0.17;;;0.17;;
31378;SDS011;61664;48.112;11.662;2023-12-14T00:57:19;0.20;;;0.20;;
31378;SDS011;61664;48.112;11.662;2023-12-14T00:59:46;0.20;;;0.20;;
31378;SDS011;61664;48.112;11.662;2023-12-14T01:02:13;0.20;;;0.20;;
31378;SDS011;61664;48.112;11.662;2023-12-14T01:04:40;0.10;;;0.10;;
31378;SDS011;61664;48.112;11.662;2023-12-14T01:07:08;0.20;;;0.20;;
31378;SDS011;61664;48.112;11.662;2023-12-14T01:09:35;0.20;;;0.20;;
31378;SDS011;61664;48.112;11.662;2023-12-14T01:12:02;0.13;;;0.13;;
31378;SDS011;61664;48.112;11.662;2023-12-14T01:14:30;0.20;;;0.20;;
31378;SDS011;61664;48.112;11.662;2023-12-14T01:16:56;0.20;;;0.20;;
31378;SDS011;61664;48.112;11.662;2023-12-14T01:19:23;0.20;;;0.20;;
31378;SDS011;61664;48.112;11.662;2023-12-14T01:21:51;0.10;;;0.10;;
31378;SDS011;61664;48.112;11.662;2023-12-14T01:24:18;0.20;;;0.20;;
31378;SDS011;61664;48.112;11.662;2023-12-14T01:26:45;0.10;;;0.10;;
31378;SDS011;61664;48.112;11.662;2023-12-14T01:29:12;0.20;;;0.20;;
31378;SDS011;61664;48.112;11.662;2023-12-14T01:31:39;0.20;;;0.20;;
31378;SDS011;61664;48.112;11.662;2023-12-14T01:34:06;0.20;;;0.20;;
31378;SDS011;61664;48.112;11.662;2023-12-14T01:36:33;0.20;;;0.20;;
31378;SDS011;61664;48.112;11.662;2023-12-14T01:39:00;0.20;;;0.20;;
31378;SDS011;61664;48.112;11.662;2023-12-14T01:41:27;0.20;;;0.20;;
31378;SDS011;61664;48.112;11.662;2023-12-14T01:43:54;0.20;;;0.20;;
31378;SDS011;61664;48.112;11.662;2023-12-14T01:46:21;0.10;;;0.10;;
31378;SDS011;61664;48.112;11.662;2023-12-14T01:48:47;0.20;;;0.20;;
31378;SDS011;61664;48.112;11.662;2023-12-14T01:51:14;0.10;;;0.10;;
31378;SDS011;61664;48.112;11.662;2023-12-14T01:53:41;0.10;;;0.10;;
31378;SDS011;61664;48.112;11.662;2023-12-14T01:56:08;0.20;;;0.20;;
31378;SDS011;61664;48.112;11.662;2023-12-14T01:58:35;0.15;;;0.15;;
31378;SDS011;61664;48.112;11.662;2023-12-14T02:01:08;0.20;;;0.20;;
31378;SDS011;61664;48.112;11.662;2023-12-14T02:03:47;0.43;;;0.13;;
31378;SDS011;61664;48.112;11.662;2023-12-14T02:06:17;0.10;;;0.10;;
31378;SDS011;61664;48.112;11.662;2023-12-14T02:08:44;0.10;;;0.10;;
31378;SDS011;61664;48.112;11.662;2023-12-14T02:11:11;0.20;;;0.20;;
31378;SDS011;61664;48.112;11.662;2023-12-14T02:13:38;0.10;;;0.10;;
31378;SDS011;61664;48.112;11.662;2023-12-14T02:16:05;0.20;;;0.10;;
31378;SDS011;61664;48.112;11.662;2023-12-14T02:18:32;0.13;;;0.13;;
31378;SDS011;61664;48.112;11.662;2023-12-14T02:21:00;0.20;;;0.20;;
31378;SDS011;61664;48.112;11.662;2023-12-14T02:23:26;0.22;;;0.20;;
31378;SDS011;61664;48.112;11.662;2023-12-14T02:25:53;0.10;;;0.10;;
31378;SDS011;61664;48.112;11.662;2023-12-14T02:28:20;0.10;;;0.10;;
31378;SDS011;61664;48.112;11.662;2023-12-14T02:30:47;0.10;;;0.10;;
31378;SDS011;61664;48.112;11.662;2023-12-14T02:33:14;0.13;;;0.13;;
31378;SDS011;61664;48.112;11.662;2023-12-14T02:35:42;0.10;;;0.10;;
31378;SDS011;61664;48.112;11.662;2023-12-14T02:38:09;0.10;;;0.10;;
31378;SDS011;61664;48.112;11.662;2023-12-14T02:40:36;0.10;;;0.10;;
31378;SDS011;61664;48.112;11.662;2023-12-14T02:43:03;0.10;;;0.10;;
31378;SDS011;61664;48.112;11.662;2023-12-14T02:45:30;0.20;;;0.20;;
31378;SDS011;61664;48.112;11.662;2023-12-14T02:47:57;0.20;;;0.20;;
31378;SDS011;61664;48.112;11.662;2023-12-14T02:50:24;0.20;;;0.20;;
31378;SDS011;61664;48.112;11.662;2023-12-14T02:52:51;0.32;;;0.32;;
31378;SDS011;61664;48.112;11.662;2023-12-14T02:55:18;0.30;;;0.30;;
31378;SDS011;61664;48.112;11.662;2023-12-14T02:57:45;0.40;;;0.40;;
31378;SDS011;61664;48.112;11.662;2023-12-14T03:00:12;0.40;;;0.40;;
31378;SDS011;61664;48.112;11.662;2023-12-14T03:02:39;0.40;;;0.40;;
31378;SDS011;61664;48.112;11.662;2023-12-14T03:05:06;0.38;;;0.38;;
31378;SDS011;61664;48.112;11.662;2023-12-14T03:07:36;0.43;;;0.43;;
31378;SDS011;61664;48.112;11.662;2023-12-14T03:10:03;0.30;;;0.30;;
31378;SDS011;61664;48.112;11.662;2023-12-14T03:12:31;0.30;;;0.30;;
31378;SDS011;61664;48.112;11.662;2023-12-14T03:14:58;0.43;;;0.40;;
31378;SDS011;61664;48.112;11.662;2023-12-14T03:17:25;0.38;;;0.38;;
31378;SDS011;61664;48.112;11.662;2023-12-14T03:19:52;0.30;;;0.30;;
31378;SDS011;61664;48.112;11.662;2023-12-14T03:22:19;0.28;;;0.28;;
31378;SDS011;61664;48.112;11.662;2023-12-14T03:24:46;0.50;;;0.47;;
31378;SDS011;61664;48.112;11.662;2023-12-14T03:27:13;0.40;;;0.40;;
31378;SDS011;61664;48.112;11.662;2023-12-14T03:29:40;0.30;;;0.30;;
31378;SDS011;61664;48.112;11.662;2023-12-14T03:32:07;0.50;;;0.40;;
31378;SDS011;61664;48.112;11.662;2023-12-14T03:34:34;0.30;;;0.30;;
31378;SDS011;61664;48.112;11.662;2023-12-14T03:37:01;0.30;;;0.30;;
31378;SDS011;61664;48.112;11.662;2023-12-14T03:39:28;0.30;;;0.30;;
31378;SDS011;61664;48.112;11.662;2023-12-14T03:41:55;0.30;;;0.30;;
31378;SDS011;61664;48.112;11.662;2023-12-14T03:44:22;0.30;;;0.30;;
31378;SDS011;61664;48.112;11.662;2023-12-14T03:46:50;0.30;;;0.30;;
31378;SDS011;61664;48.112;11.662;2023-12-14T03:49:17;0.40;;;0.40;;
31378;SDS011;61664;48.112;11.662;2023-12-14T03:51:44;0.30;;;0.30;;
31378;SDS011;61664;48.112;11.662;2023-12-14T03:54:11;0.40;;;0.40;;
31378;SDS011;61664;48.112;11.662;2023-12-14T03:56:38;0.40;;;0.40;;
31378;SDS011;61664;48.112;11.662;2023-12-14T03:59:05;0.30;;;0.30;;
31378;SDS011;61664;48.112;11.662;2023-12-14T04:01:32;0.28;;;0.28;;
31378;SDS011;61664;48.112;11.662;2023-12-14T04:03:59;0.77;;;0.30;;
31378;SDS011;61664;48.112;11.662;2023-12-14T04:06:27;0.30;;;0.30;;
31378;SDS011;61664;48.112;11.662;2023-12-14T04:08:54;0.20;;;0.20;;
31378;SDS011;61664;48.112;11.662;2023-12-14T04:11:21;0.32;;;0.32;;
31378;SDS011;61664;48.112;11.662;2023-12-14T04:13:48;0.30;;;0.30;;
31378;SDS011;61664;48.112;11.662;2023-12-14T04:16:19;0.43;;;0.43;;
31378;SDS011;61664;48.112;11.662;2023-12-14T04:18:51;0.35;;;0.35;;
31378;SDS011;61664;48.112;11.662;2023-12-14T04:21:18;0.32;;;0.32;;
31378;SDS011;61664;48.112;11.662;2023-12-14T04:23:45;0.38;;;0.38;;
31378;SDS011;61664;48.112;11.662;2023-12-14T04:26:12;0.30;;;0.30;;
31378;SDS011;61664;48.112;11.662;2023-12-14T04:28:40;0.40;;;0.40;;
31378;SDS011;61664;48.112;11.662;2023-12-14T04:31:10;0.30;;;0.30;;
31378;SDS011;61664;48.112;11.662;2023-12-14T04:33:37;0.30;;;0.30;;
31378;SDS011;61664;48.112;11.662;2023-12-14T04:36:04;0.63;;;0.45;;
31378;SDS011;61664;48.112;11.662;2023-12-14T04:38:32;0.30;;;0.30;;
31378;SDS011;61664;48.112;11.662;2023-12-14T04:40:59;0.40;;;0.40;;
31378;SDS011;61664;48.112;11.662;2023-12-14T04:43:26;0.30;;;0.30;;
31378;SDS011;61664;48.112;11.662;2023-12-14T04:45:56;0.30;;;0.30;;
31378;SDS011;61664;48.112;11.662;2023-12-14T04:48:22;0.30;;;0.30;;
31378;SDS011;61664;48.112;11.662;2023-12-14T04:50:49;0.25;;;0.25;;
31378;SDS011;61664;48.112;11.662;2023-12-14T04:53:16;0.25;;;0.25;;
31378;SDS011;61664;48.112;11.662;2023-12-14T04:55:44;0.30;;;0.30;;
31378;SDS011;61664;48.112;11.662;2023-12-14T04:58:11;0.20;;;0.20;;
31378;SDS011;61664;48.112;11.662;2023-12-14T05:00:39;0.10;;;0.10;;
31378;SDS011;61664;48.112;11.662;2023-12-14T05:03:06;0.30;;;0.30;;
31378;SDS011;61664;48.112;11.662;2023-12-14T05:05:32;0.20;;;0.20;;
31378;SDS011;61664;48.112;11.662;2023-12-14T05:07:59;0.10;;;0.10;;
31378;SDS011;61664;48.112;11.662;2023-12-14T05:10:27;0.10;;;0.10;;
31378;SDS011;61664;48.112;11.662;2023-12-14T05:12:53;0.10;;;0.10;;
31378;SDS011;61664;48.112;11.662;2023-12-14T05:15:20;0.10;;;0.10;;
31378;SDS011;61664;48.112;11.662;2023-12-14T05:17:47;0.10;;;0.10;;
31378;SDS011;61664;48.112;11.662;2023-12-14T05:20:14;0.00;;;0.00;;
31378;SDS011;61664;48.112;11.662;2023-12-14T05:22:41;0.10;;;0.10;;
31378;SDS011;61664;48.112;11.662;2023-12-14T05:25:08;0.03;;;0.03;;
31378;SDS011;61664;48.112;11.662;2023-12-14T05:27:35;0.10;;;0.10;;
31378;SDS011;61664;48.112;11.662;2023-12-14T05:30:02;0.00;;;0.00;;
31378;SDS011;61664;48.112;11.662;2023-12-14T05:32:30;0.00;;;0.00;;
31378;SDS011;61664;48.112;11.662;2023-12-14T05:34:57;0.00;;;0.00;;
31378;SDS011;61664;48.112;11.662;2023-12-14T05:37:26;0.00;;;0.00;;
31378;SDS011;61664;48.112;11.662;2023-12-14T05:39:53;0.00;;;0.00;;
31378;SDS011;61664;48.112;11.662;2023-12-14T05:42:20;0.32;;;0.10;;
31378;SDS011;61664;48.112;11.662;2023-12-14T05:44:47;0.00;;;0.00;;
31378;SDS011;61664;48.112;11.662;2023-12-14T05:47:14;0.00;;;0.00;;
31378;SDS011;61664;48.112;11.662;2023-12-14T05:49:42;0.00;;;0.00;;
31378;SDS011;61664;48.112;11.662;2023-12-14T05:52:10;0.00;;;0.00;;
31378;SDS011;61664;48.112;11.662;2023-12-14T05:54:37;0.10;;;0.10;;
31378;SDS011;61664;48.112;11.662;2023-12-14T05:57:08;0.00;;;0.00;;
31378;SDS011;61664;48.112;11.662;2023-12-14T05:59:35;0.00;;;0.00;;
31378;SDS011;61664;48.112;11.662;2023-12-14T06:02:02;0.10;;;0.10;;
31378;SDS011;61664;48.112;11.662;2023-12-14T06:04:29;0.10;;;0.03;;
31378;SDS011;61664;48.112;11.662;2023-12-14T06:06:56;0.00;;;0.00;;
31378;SDS011;61664;48.112;11.662;2023-12-14T06:09:23;0.03;;;0.03;;
31378;SDS011;61664;48.112;11.662;2023-12-14T06:11:55;0.00;;;0.00;;
31378;SDS011;61664;48.112;11.662;2023-12-14T06:14:22;0.00;;;0.00;;
31378;SDS011;61664;48.112;11.662;2023-12-14T06:16:49;0.10;;;0.10;;
31378;SDS011;61664;48.112;11.662;2023-12-14T06:19:16;0.10;;;0.10;;
31378;SDS011;61664;48.112;11.662;2023-12-14T06:21:43;0.00;;;0.00;;
31378;SDS011;61664;48.112;11.662;2023-12-14T06:24:10;0.47;;;0.00;;
31378;SDS011;61664;48.112;11.662;2023-12-14T06:26:40;0.00;;;0.00;;
31378;SDS011;61664;48.112;11.662;2023-12-14T06:29:11;0.10;;;0.10;;
31378;SDS011;61664;48.112;11.662;2023-12-14T06:31:39;0.10;;;0.10;;
31378;SDS011;61664;48.112;11.662;2023-12-14T06:34:06;0.10;;;0.10;;
31378;SDS011;61664;48.112;11.662;2023-12-14T06:36:34;0.10;;;0.10;;
31378;SDS011;61664;48.112;11.662;2023-12-14T06:39:01;0.10;;;0.10;;
31378;SDS011;61664;48.112;11.662;2023-12-14T06:41:29;0.10;;;0.10;;
31378;SDS011;61664;48.112;11.662;2023-12-14T06:43:56;0.20;;;0.20;;
31378;SDS011;61664;48.112;11.662;2023-12-14T06:46:23;0.10;;;0.10;;
31378;SDS011;61664;48.112;11.662;2023-12-14T06:48:50;0.10;;;0.10;;
31378;SDS011;61664;48.112;11.662;2023-12-14T06:51:17;0.10;;;0.10;;
31378;SDS011;61664;48.112;11.662;2023-12-14T06:53:44;0.03;;;0.03;;
31378;SDS011;61664;48.112;11.662;2023-12-14T06:56:12;0.10;;;0.10;;
31378;SDS011;61664;48.112;11.662;2023-12-14T06:58:40;0.10;;;0.10;;
31378;SDS011;61664;48.112;11.662;2023-12-14T07:01:15;0.05;;;0.05;;
31378;SDS011;61664;48.112;11.662;2023-12-14T07:03:44;0.10;;;0.10;;
31378;SDS011;61664;48.112;11.662;2023-12-14T07:06:12;0.10;;;0.10;;
31378;SDS011;61664;48.112;11.662;2023-12-14T07:08:41;0.10;;;0.10;;
31378;SDS011;61664;48.112;11.662;2023-12-14T07:11:08;0.08;;;0.08;;
31378;SDS011;61664;48.112;11.662;2023-12-14T07:13:36;0.10;;;0.10;;
31378;SDS011;61664;48.112;11.662;2023-12-14T07:16:07;0.05;;;0.00;;
31378;SDS011;61664;48.112;11.662;2023-12-14T07:18:36;0.10;;;0.10;;
31378;SDS011;61664;48.112;11.662;2023-12-14T07:21:05;0.10;;;0.10;;
31378;SDS011;61664;48.112;11.662;2023-12-14T07:23:33;0.10;;;0.10;;
31378;SDS011;61664;48.112;11.662;2023-12-14T07:26:00;0.10;;;0.10;;
31378;SDS011;61664;48.112;11.662;2023-12-14T07:28:31;0.10;;;0.10;;
31378;SDS011;61664;48.112;11.662;2023-12-14T07:30:58;0.00;;;0.00;;
31378;SDS011;61664;48.112;11.662;2023-12-14T07:33:25;0.03;;;0.03;;
31378;SDS011;61664;48.112;11.662;2023-12-14T07:35:52;0.10;;;0.10;;
31378;SDS011;61664;48.112;11.662;2023-12-14T07:38:19;0.05;;;0.05;;
31378;SDS011;61664;48.112;11.662;2023-12-14T07:40:46;0.10;;;0.10;;
31378;SDS011;61664;48.112;11.662;2023-12-14T07:43:13;0.08;;;0.08;;
31378;SDS011;61664;48.112;11.662;2023-12-14T07:45:40;0.10;;;0.10;;
31378;SDS011;61664;48.112;11.662;2023-12-14T07:48:07;0.10;;;0.10;;
31378;SDS011;61664;48.112;11.662;2023-12-14T07:50:34;0.10;;;0.10;;
31378;SDS011;61664;48.112;11.662;2023-12-14T07:53:01;0.10;;;0.10;;
31378;SDS011;61664;48.112;11.662;2023-12-14T07:55:29;0.10;;;0.10;;
31378;SDS011;61664;48.112;11.662;2023-12-14T07:57:57;0.10;;;0.10;;
31378;SDS011;61664;48.112;11.662;2023-12-14T08:00:24;0.10;;;0.10;;
31378;SDS011;61664;48.112;11.662;2023-12-14T08:02:51;0.10;;;0.10;;
31378;SDS011;61664;48.112;11.662;2023-12-14T08:05:18;0.10;;;0.10;;
31378;SDS011;61664;48.112;11.662;2023-12-14T08:07:45;0.10;;;0.10;;
31378;SDS011;61664;48.112;11.662;2023-12-14T08:10:13;0.10;;;0.10;;
31378;SDS011;61664;48.112;11.662;2023-12-14T08:12:40;0.00;;;0.00;;
31378;SDS011;61664;48.112;11.662;2023-12-14T08:15:08;0.10;;;0.10;;
31378;SDS011;61664;48.112;11.662;2023-12-14T08:17:35;0.10;;;0.10;;
31378;SDS011;61664;48.112;11.662;2023-12-14T08:20:03;0.03;;;0.03;;
31378;SDS011;61664;48.112;11.662;2023-12-14T08:22:35;0.10;;;0.10;;
31378;SDS011;61664;48.112;11.662;2023-12-14T08:25:02;0.08;;;0.08;;
31378;SDS011;61664;48.112;11.662;2023-12-14T08:27:30;0.10;;;0.10;;
31378;SDS011;61664;48.112;11.662;2023-12-14T08:29:57;0.10;;;0.10;;
31378;SDS011;61664;48.112;11.662;2023-12-14T08:32:23;0.10;;;0.10;;
31378;SDS011;61664;48.112;11.662;2023-12-14T08:34:50;0.10;;;0.10;;
31378;SDS011;61664;48.112;11.662;2023-12-14T08:37:19;0.10;;;0.10;;
31378;SDS011;61664;48.112;11.662;2023-12-14T08:39:46;0.10;;;0.10;;
31378;SDS011;61664;48.112;11.662;2023-12-14T08:42:13;0.10;;;0.10;;
31378;SDS011;61664;48.112;11.662;2023-12-14T08:44:40;0.10;;;0.10;;
31378;SDS011;61664;48.112;11.662;2023-12-14T08:47:27;0.00;;;0.00;;
31378;SDS011;61664;48.112;11.662;2023-12-14T08:49:54;0.10;;;0.10;;
31378;SDS011;61664;48.112;11.662;2023-12-14T08:52:22;0.10;;;0.10;;
31378;SDS011;61664;48.112;11.662;2023-12-14T08:54:49;0.10;;;0.10;;
31378;SDS011;61664;48.112;11.662;2023-12-14T08:57:15;0.10;;;0.10;;
31378;SDS011;61664;48.112;11.662;2023-12-14T08:59:43;0.10;;;0.10;;
31378;SDS011;61664;48.112;11.662;2023-12-14T09:02:10;0.10;;;0.10;;
31378;SDS011;61664;48.112;11.662;2023-12-14T09:04:38;0.13;;;0.13;;
31378;SDS011;61664;48.112;11.662;2023-12-14T09:07:05;0.10;;;0.10;;
31378;SDS011;61664;48.112;11.662;2023-12-14T09:09:32;0.10;;;0.10;;
31378;SDS011;61664;48.112;11.662;2023-12-14T09:11:59;0.10;;;0.10;;
31378;SDS011;61664;48.112;11.662;2023-12-14T09:14:26;0.10;;;0.10;;
31378;SDS011;61664;48.112;11.662;2023-12-14T09:16:53;0.10;;;0.10;;
31378;SDS011;61664;48.112;11.662;2023-12-14T09:19:20;0.10;;;0.10;;
31378;SDS011;61664;48.112;11.662;2023-12-14T09:21:47;0.20;;;0.20;;
31378;SDS011;61664;48.112;11.662;2023-12-14T09:24:14;0.10;;;0.10;;
31378;SDS011;61664;48.112;11.662;2023-12-14T09:26:42;0.10;;;0.10;;
31378;SDS011;61664;48.112;11.662;2023-12-14T09:29:09;0.10;;;0.10;;
31378;SDS011;61664;48.112;11.662;2023-12-14T09:31:36;0.10;;;0.10;;
31378;SDS011;61664;48.112;11.662;2023-12-14T09:34:08;0.10;;;0.10;;
31378;SDS011;61664;48.112;11.662;2023-12-14T09:36:40;0.10;;;0.10;;
31378;SDS011;61664;48.112;11.662;2023-12-14T09:39:07;0.10;;;0.10;;
31378;SDS011;61664;48.112;11.662;2023-12-14T09:41:38;0.20;;;0.20;;
31378;SDS011;61664;48.112;11.662;2023-12-14T09:44:05;0.10;;;0.10;;
31378;SDS011;61664;48.112;11.662;2023-12-14T09:46:34;0.10;;;0.10;;
31378;SDS011;61664;48.112;11.662;2023-12-14T09:51:41;0.10;;;0.10;;
31378;SDS011;61664;48.112;11.662;2023-12-14T09:54:08;0.17;;;0.17;;
31378;SDS011;61664;48.112;11.662;2023-12-14T09:56:35;0.20;;;0.20;;
31378;SDS011;61664;48.112;11.662;2023-12-14T09:59:11;0.20;;;0.10;;
31378;SDS011;61664;48.112;11.662;2023-12-14T10:01:39;0.10;;;0.10;;
31378;SDS011;61664;48.112;11.662;2023-12-14T10:04:09;0.20;;;0.20;;
31378;SDS011;61664;48.112;11.662;2023-12-14T10:06:43;0.10;;;0.10;;
31378;SDS011;61664;48.112;11.662;2023-12-14T10:09:13;0.10;;;0.10;;
31378;SDS011;61664;48.112;11.662;2023-12-14T10:11:41;0.00;;;0.00;;
31378;SDS011;61664;48.112;11.662;2023-12-14T10:14:20;0.10;;;0.10;;
31378;SDS011;61664;48.112;11.662;2023-12-14T10:16:51;0.10;;;0.10;;
31378;SDS011;61664;48.112;11.662;2023-12-14T10:19:28;0.00;;;0.00;;
31378;SDS011;61664;48.112;11.662;2023-12-14T10:21:56;0.00;;;0.00;;
31378;SDS011;61664;48.112;11.662;2023-12-14T10:24:23;0.10;;;0.10;;
31378;SDS011;61664;48.112;11.662;2023-12-14T10:26:50;0.00;;;0.00;;
31378;SDS011;61664;48.112;11.662;2023-12-14T10:29:18;0.10;;;0.10;;
31378;SDS011;61664;48.112;11.662;2023-12-14T10:31:45;0.00;;;0.00;;
31378;SDS011;61664;48.112;11.662;2023-12-14T10:34:14;0.10;;;0.10;;
31378;SDS011;61664;48.112;11.662;2023-12-14T10:36:42;0.10;;;0.10;;
31378;SDS011;61664;48.112;11.662;2023-12-14T10:39:14;0.10;;;0.10;;
31378;SDS011;61664;48.112;11.662;2023-12-14T10:42:02;0.10;;;0.10;;
31378;SDS011;61664;48.112;11.662;2023-12-14T10:44:44;0.00;;;0.00;;
31378;SDS011;61664;48.112;11.662;2023-12-14T10:50:06;0.10;;;0.10;;
31378;SDS011;61664;48.112;11.662;2023-12-14T10:52:34;0.00;;;0.00;;
31378;SDS011;61664;48.112;11.662;2023-12-14T10:55:04;0.10;;;0.10;;
31378;SDS011;61664;48.112;11.662;2023-12-14T10:57:46;0.10;;;0.10;;
31378;SDS011;61664;48.112;11.662;2023-12-14T11:00:15;0.10;;;0.10;;
31378;SDS011;61664;48.112;11.662;2023-12-14T11:02:47;0.10;;;0.10;;
31378;SDS011;61664;48.112;11.662;2023-12-14T11:05:15;0.15;;;0.15;;
31378;SDS011;61664;48.112;11.662;2023-12-14T11:07:47;0.20;;;0.10;;
31378;SDS011;61664;48.112;11.662;2023-12-14T11:10:23;0.13;;;0.10;;
31378;SDS011;61664;48.112;11.662;2023-12-14T11:13:02;0.17;;;0.17;;
31378;SDS011;61664;48.112;11.662;2023-12-14T11:15:36;0.15;;;0.15;;
31378;SDS011;61664;48.112;11.662;2023-12-14T11:23:16;0.10;;;0.10;;
31378;SDS011;61664;48.112;11.662;2023-12-14T11:25:53;0.13;;;0.10;;
31378;SDS011;61664;48.112;11.662;2023-12-14T11:28:38;0.63;;;0.20;;
31378;SDS011;61664;48.112;11.662;2023-12-14T11:31:10;0.10;;;0.10;;
31378;SDS011;61664;48.112;11.662;2023-12-14T11:33:39;0.20;;;0.20;;
31378;SDS011;61664;48.112;11.662;2023-12-14T11:36:12;0.30;;;0.30;;
31378;SDS011;61664;48.112;11.662;2023-12-14T11:38:41;0.10;;;0.10;;
31378;SDS011;61664;48.112;11.662;2023-12-14T11:41:09;0.10;;;0.10;;
31378;SDS011;61664;48.112;11.662;2023-12-14T11:43:40;0.10;;;0.10;;
31378;SDS011;61664;48.112;11.662;2023-12-14T11:46:10;0.10;;;0.10;;
31378;SDS011;61664;48.112;11.662;2023-12-14T11:48:38;0.10;;;0.10;;
31378;SDS011;61664;48.112;11.662;2023-12-14T11:51:05;0.10;;;0.10;;
31378;SDS011;61664;48.112;11.662;2023-12-14T11:53:35;0.13;;;0.13;;
31378;SDS011;61664;48.112;11.662;2023-12-14T11:56:05;0.10;;;0.10;;
31378;SDS011;61664;48.112;11.662;2023-12-14T11:58:33;0.10;;;0.10;;
31378;SDS011;61664;48.112;11.662;2023-12-14T12:01:14;0.00;;;0.00;;
31378;SDS011;61664;48.112;11.662;2023-12-14T12:03:43;0.10;;;0.10;;
31378;SDS011;61664;48.112;11.662;2023-12-14T12:08:56;0.10;;;0.10;;
31378;SDS011;61664;48.112;11.662;2023-12-14T12:11:29;0.10;;;0.10;;
31378;SDS011;61664;48.112;11.662;2023-12-14T12:14:00;0.10;;;0.10;;
31378;SDS011;61664;48.112;11.662;2023-12-14T12:16:27;0.10;;;0.10;;
31378;SDS011;61664;48.112;11.662;2023-12-14T12:18:54;0.00;;;0.00;;
31378;SDS011;61664;48.112;11.662;2023-12-14T12:21:21;0.10;;;0.10;;
31378;SDS011;61664;48.112;11.662;2023-12-14T12:23:50;0.10;;;0.10;;
31378;SDS011;61664;48.112;11.662;2023-12-14T12:26:29;0.03;;;0.03;;
31378;SDS011;61664;48.112;11.662;2023-12-14T12:28:59;0.10;;;0.10;;
31378;SDS011;61664;48.112;11.662;2023-12-14T12:31:38;0.13;;;0.10;;
31378;SDS011;61664;48.112;11.662;2023-12-14T12:34:11;0.20;;;0.20;;
31378;SDS011;61664;48.112;11.662;2023-12-14T12:36:38;0.20;;;0.20;;
31378;SDS011;61664;48.112;11.662;2023-12-14T12:39:06;0.10;;;0.10;;
31378;SDS011;61664;48.112;11.662;2023-12-14T12:41:34;0.10;;;0.10;;
31378;SDS011;61664;48.112;11.662;2023-12-14T12:44:03;0.10;;;0.10;;
31378;SDS011;61664;48.112;11.662;2023-12-14T12:46:32;0.08;;;0.08;;
31378;SDS011;61664;48.112;11.662;2023-12-14T12:49:04;0.00;;;0.00;;
31378;SDS011;61664;48.112;11.662;2023-12-14T12:51:32;0.10;;;0.10;;
31378;SDS011;61664;48.112;11.662;2023-12-14T12:53:59;0.10;;;0.10;;
31378;SDS011;61664;48.112;11.662;2023-12-14T12:56:38;0.10;;;0.10;;
31378;SDS011;61664;48.112;11.662;2023-12-14T12:59:06;0.10;;;0.10;;
31378;SDS011;61664;48.112;11.662;2023-12-14T13:01:40;0.10;;;0.10;;
31378;SDS011;61664;48.112;11.662;2023-12-14T13:04:17;0.08;;;0.08;;
31378;SDS011;61664;48.112;11.662;2023-12-14T13:06:46;0.20;;;0.20;;
31378;SDS011;61664;48.112;11.662;2023-12-14T13:09:15;0.10;;;0.10;;
31378;SDS011;61664;48.112;11.662;2023-12-14T13:11:46;0.10;;;0.10;;
31378;SDS011;61664;48.112;11.662;2023-12-14T13:14:13;0.00;;;0.00;;
31378;SDS011;61664;48.112;11.662;2023-12-14T13:16:41;0.10;;;0.10;;
31378;SDS011;61664;48.112;11.662;2023-12-14T13:19:09;0.00;;;0.00;;
31378;SDS011;61664;48.112;11.662;2023-12-14T13:21:36;0.00;;;0.00;;
31378;SDS011;61664;48.112;11.662;2023-12-14T13:24:03;0.00;;;0.00;;
31378;SDS011;61664;48.112;11.662;2023-12-14T13:26:34;0.00;;;0.00;;
31378;SDS011;61664;48.112;11.662;2023-12-14T13:29:01;0.00;;;0.00;;
31378;SDS011;61664;48.112;11.662;2023-12-14T13:31:29;0.00;;;0.00;;
31378;SDS011;61664;48.112;11.662;2023-12-14T13:33:56;0.03;;;0.03;;
31378;SDS011;61664;48.112;11.662;2023-12-14T13:36:23;0.10;;;0.10;;
31378;SDS011;61664;48.112;11.662;2023-12-14T13:38:55;0.10;;;0.10;;
31378;SDS011;61664;48.112;11.662;2023-12-14T13:41:22;0.10;;;0.10;;
31378;SDS011;61664;48.112;11.662;2023-12-14T13:43:49;0.10;;;0.00;;
31378;SDS011;61664;48.112;11.662;2023-12-14T13:46:18;0.10;;;0.10;;
31378;SDS011;61664;48.112;11.662;2023-12-14T13:48:49;0.10;;;0.10;;
31378;SDS011;61664;48.112;11.662;2023-12-14T13:51:18;0.00;;;0.00;;
31378;SDS011;61664;48.112;11.662;2023-12-14T13:53:53;0.10;;;0.10;;
31378;SDS011;61664;48.112;11.662;2023-12-14T13:56:21;0.10;;;0.10;;
31378;SDS011;61664;48.112;11.662;2023-12-14T13:59:02;0.10;;;0.10;;
31378;SDS011;61664;48.112;11.662;2023-12-14T14:01:29;0.10;;;0.10;;
31378;SDS011;61664;48.112;11.662;2023-12-14T14:03:56;0.10;;;0.10;;
31378;SDS011;61664;48.112;11.662;2023-12-14T14:06:22;0.10;;;0.10;;
31378;SDS011;61664;48.112;11.662;2023-12-14T14:08:49;0.00;;;0.00;;
31378;SDS011;61664;48.112;11.662;2023-12-14T14:11:16;0.08;;;0.08;;
31378;SDS011;61664;48.112;11.662;2023-12-14T14:13:43;0.10;;;0.10;;
31378;SDS011;61664;48.112;11.662;2023-12-14T14:16:10;0.05;;;0.05;;
31378;SDS011;61664;48.112;11.662;2023-12-14T14:18:37;0.00;;;0.00;;
31378;SDS011;61664;48.112;11.662;2023-12-14T14:21:04;0.10;;;0.10;;
31378;SDS011;61664;48.112;11.662;2023-12-14T14:23:35;0.15;;;0.15;;
31378;SDS011;61664;48.112;11.662;2023-12-14T14:26:02;0.00;;;0.00;;
31378;SDS011;61664;48.112;11.662;2023-12-14T14:28:29;0.00;;;0.00;;
31378;SDS011;61664;48.112;11.662;2023-12-14T14:30:56;0.03;;;0.03;;
31378;SDS011;61664;48.112;11.662;2023-12-14T14:33:23;0.00;;;0.00;;
31378;SDS011;61664;48.112;11.662;2023-12-14T14:35:51;0.10;;;0.10;;
31378;SDS011;61664;48.112;11.662;2023-12-14T14:38:19;0.13;;;0.13;;
31378;SDS011;61664;48.112;11.662;2023-12-14T14:40:46;0.10;;;0.10;;
31378;SDS011;61664;48.112;11.662;2023-12-14T14:43:13;0.10;;;0.10;;
31378;SDS011;61664;48.112;11.662;2023-12-14T14:45:40;0.10;;;0.10;;
31378;SDS011;61664;48.112;11.662;2023-12-14T14:48:07;0.15;;;0.10;;
31378;SDS011;61664;48.112;11.662;2023-12-14T14:50:35;0.00;;;0.00;;
31378;SDS011;61664;48.112;11.662;2023-12-14T14:53:02;0.10;;;0.10;;